ADDS METAR Data INFO
IDs: Format: Raw Decoded Include TAF

Data at: 0345 UTC 23 Nov 2017

METAR for:EBFS (Florennes(AB), --, BX)
Text:EBFS 230325Z AUTO 18016KT 9999 FEW110/// BKN130/// 10/03 Q1001 BLU
Temperature: 10.0°C ( 50°F)
Dewpoint: 3.0°C ( 37°F) [RH = 62%]
Pressure (altimeter):29.56 inches Hg (1001.0 mb)
Winds:from the S (180 degrees) at 18 MPH (16 knots; 8.2 m/s)
Visibility:6 or more sm (10+ km)
Ceiling:13000 feet AGL
Clouds: few clouds at 11000 feet AGL, broken clouds at 13000 feet AGL

TAF for:EBFS (Florennes(AB), --, BX)
Text:No data found